createdAt,value
2023-01-19T00:02:13.664Z,100350.53
2023-01-19T00:05:04.199Z,100359.16
2023-01-19T00:07:53.534Z,100359.72
2023-01-19T00:10:46.647Z,100359.16
2023-01-19T00:13:35.626Z,100361.06
2023-01-19T00:16:24.932Z,100365.13
2023-01-19T00:19:20.579Z,100351.88
2023-01-19T00:22:09.918Z,100358.38
2023-01-19T00:24:59.090Z,100355.94
2023-01-19T00:27:49.997Z,100352.97
2023-01-19T00:30:39.666Z,100341.59
2023-01-19T00:33:29.023Z,100344.03
2023-01-19T00:36:18.336Z,100351.06
2023-01-19T00:39:07.591Z,100350.78
2023-01-19T00:42:14.485Z,100356.22
2023-01-19T00:45:06.707Z,100357.81
2023-01-19T00:47:57.396Z,100354.59
2023-01-19T00:50:46.684Z,100345.69
2023-01-19T00:53:35.921Z,100347.28
2023-01-19T00:56:25.145Z,100346.50
2023-01-19T00:59:14.686Z,100315.41
2023-01-19T01:02:05.529Z,100337.28
2023-01-19T01:04:56.852Z,100334.56
2023-01-19T01:07:47.130Z,100322.44
2023-01-19T01:10:36.317Z,100338.13
2023-01-19T01:13:27.753Z,100333.78
2023-01-19T01:16:18.059Z,100328.13
2023-01-19T01:19:08.830Z,100330.81
2023-01-19T01:21:58.156Z,100330.28
2023-01-19T01:24:47.631Z,100328.66
2023-01-19T01:27:36.912Z,100321.66
2023-01-19T01:30:26.140Z,100314.88
2023-01-19T01:33:15.348Z,100309.50
2023-01-19T01:36:29.183Z,100302.72
2023-01-19T01:39:18.381Z,100308.94
2023-01-19T01:42:18.900Z,100307.59
2023-01-19T01:45:31.895Z,100299.75
2023-01-19T01:48:27.931Z,100295.44
2023-01-19T01:51:27.370Z,100294.88
2023-01-19T01:54:22.893Z,100294.34
2023-01-19T01:57:13.365Z,100283.28
2023-01-19T02:00:03.397Z,100303.81
2023-01-19T02:02:55.282Z,100294.34
2023-01-19T02:05:46.153Z,100291.09
2023-01-19T02:08:58.166Z,100290.81
2023-01-19T02:12:06.877Z,100289.75
2023-01-19T02:14:56.114Z,100290.53
2023-01-19T02:17:52.387Z,100282.72
2023-01-19T02:20:46.564Z,100281.38
2023-01-19T02:23:42.611Z,100280.56
2023-01-19T02:26:36.544Z,100274.34
2023-01-19T02:29:28.253Z,100264.38
2023-01-19T02:32:17.563Z,100264.91
2023-01-19T02:35:08.027Z,100248.72
2023-01-19T02:37:58.735Z,100272.44
2023-01-19T02:40:50.427Z,100266.50
2023-01-19T02:43:40.650Z,100277.88
2023-01-19T02:46:30.014Z,100272.19
2023-01-19T02:49:19.563Z,100269.22
2023-01-19T02:52:16.021Z,100265.97
2023-01-19T02:55:16.587Z,100278.69
2023-01-19T02:58:12.991Z,100265.44
2023-01-19T03:01:13.762Z,100262.19
2023-01-19T03:04:16.451Z,100264.38
2023-01-19T03:07:13.084Z,100262.72
2023-01-19T03:10:09.596Z,100260.06
2023-01-19T03:13:08.062Z,100268.16
2023-01-19T03:16:06.204Z,100276.50
2023-01-19T03:19:02.910Z,100265.97
2023-01-19T03:21:57.512Z,100262.47
2023-01-19T03:24:48.809Z,100272.47
2023-01-19T03:27:42.179Z,100263.53
2023-01-19T03:30:36.474Z,100262.72
2023-01-19T03:33:32.988Z,100254.94
2023-01-19T03:36:28.440Z,100261.66
2023-01-19T03:39:25.014Z,100254.13
2023-01-19T03:42:17.603Z,100243.81
2023-01-19T03:45:08.790Z,100247.06
2023-01-19T03:47:59.970Z,100236.78
2023-01-19T03:50:51.605Z,100250.88
2023-01-19T03:53:40.979Z,100240.06
2023-01-19T03:56:30.387Z,100252.47
2023-01-19T03:59:20.095Z,100237.34
2023-01-19T04:02:09.949Z,100228.72
2023-01-19T04:04:59.579Z,100231.66
2023-01-19T04:07:51.998Z,100228.16
2023-01-19T04:10:41.636Z,100228.16
2023-01-19T04:13:31.045Z,100217.91
2023-01-19T04:16:21.437Z,100226.81
2023-01-19T04:19:10.668Z,100232.22
2023-01-19T04:21:59.912Z,100237.91
2023-01-19T04:24:50.911Z,100237.34
2023-01-19T04:27:40.240Z,100234.66
2023-01-19T04:30:29.686Z,100231.13
2023-01-19T04:33:19.063Z,100234.13
2023-01-19T04:36:09.113Z,100233.03
2023-01-19T04:38:58.341Z,100227.09
2023-01-19T04:41:48.950Z,100224.16
2023-01-19T04:44:38.208Z,100250.31
2023-01-19T04:47:27.564Z,100241.97
2023-01-19T04:50:17.731Z,100249.78
2023-01-19T04:53:07.306Z,100238.47
2023-01-19T04:55:57.100Z,100240.63
2023-01-19T04:58:47.679Z,100232.78
2023-01-19T05:01:37.123Z,100246.81
2023-01-19T05:04:26.799Z,100253.31
2023-01-19T05:07:16.016Z,100247.66
2023-01-19T05:10:06.383Z,100240.09
2023-01-19T05:12:55.849Z,100244.66
2023-01-19T05:15:46.774Z,100246.31
2023-01-19T05:18:37.241Z,100231.72
2023-01-19T05:21:26.509Z,100243.88
2023-01-19T05:24:15.794Z,100241.72
2023-01-19T05:27:05.172Z,100240.09
2023-01-19T05:29:54.621Z,100230.63
2023-01-19T05:32:45.291Z,100228.47
2023-01-19T05:35:36.425Z,100234.97
2023-01-19T05:38:34.556Z,100234.13
2023-01-19T05:41:24.353Z,100229.56
2023-01-19T05:44:14.196Z,100218.47
2023-01-19T05:47:03.485Z,100233.31
2023-01-19T05:49:54.123Z,100233.84
2023-01-19T05:52:43.510Z,100232.50
2023-01-19T05:55:33.404Z,100239.00
2023-01-19T05:58:22.659Z,100246.78
2023-01-19T06:01:12.357Z,100248.13
2023-01-19T06:04:01.659Z,100250.53
2023-01-19T06:06:52.997Z,100252.94
2023-01-19T06:09:42.291Z,100248.91
2023-01-19T06:12:32.684Z,100249.69
2023-01-19T06:15:22.908Z,100252.38
2023-01-19T06:18:12.561Z,100260.19
2023-01-19T06:21:06.165Z,100261.53
2023-01-19T06:23:56.867Z,100255.06
2023-01-19T06:26:46.165Z,100261.00
2023-01-19T06:29:35.398Z,100261.53
2023-01-19T06:32:25.118Z,100262.88
2023-01-19T06:35:14.391Z,100268.84
2023-01-19T06:38:03.645Z,100269.91
2023-01-19T06:40:59.678Z,100268.03
2023-01-19T06:43:48.887Z,100275.34
2023-01-19T06:46:38.126Z,100280.75
2023-01-19T06:49:27.440Z,100291.56
2023-01-19T06:52:18.427Z,100281.59
2023-01-19T06:55:10.825Z,100281.59
2023-01-19T06:58:01.587Z,100291.28
2023-01-19T07:00:52.008Z,100297.25
2023-01-19T07:03:41.395Z,100292.69
2023-01-19T07:06:30.642Z,100297.56
2023-01-19T07:09:20.555Z,100297.84
2023-01-19T07:12:09.782Z,100296.47
2023-01-19T07:15:00.981Z,100295.69
2023-01-19T07:17:50.582Z,100294.59
2023-01-19T07:20:40.588Z,100306.75
2023-01-19T07:23:30.880Z,100303.81
2023-01-19T07:26:21.577Z,100311.09
2023-01-19T07:29:11.316Z,100318.91
2023-01-19T07:32:02.146Z,100317.03
2023-01-19T07:34:51.595Z,100314.06
2023-01-19T07:37:40.857Z,100324.06
2023-01-19T07:40:30.160Z,100325.41
2023-01-19T07:43:19.532Z,100326.22
2023-01-19T07:46:09.299Z,100327.56
2023-01-19T07:48:59.962Z,100331.91
2023-01-19T07:51:49.287Z,100341.09
2023-01-19T07:54:38.550Z,100335.16
2023-01-19T07:57:27.771Z,100340.28
2023-01-19T08:00:19.756Z,100344.03
2023-01-19T08:03:09.310Z,100336.22
2023-01-19T08:06:00.515Z,100341.59
2023-01-19T08:08:50.454Z,100330.81
2023-01-19T08:11:39.823Z,100331.34
2023-01-19T08:14:29.091Z,100349.16
2023-01-19T08:17:18.570Z,100351.09
2023-01-19T08:20:09.880Z,100348.09
2023-01-19T08:23:01.581Z,100345.69
2023-01-19T08:25:51.140Z,100360.53
2023-01-19T08:28:40.377Z,100365.66
2023-01-19T08:31:30.335Z,100373.50
2023-01-19T08:34:19.808Z,100383.75
2023-01-19T08:37:09.214Z,100387.84
2023-01-19T08:39:59.899Z,100389.16
2023-01-19T08:42:49.120Z,100395.13
2023-01-19T08:45:46.728Z,100389.16
2023-01-19T08:48:35.943Z,100407.00
2023-01-19T08:51:25.149Z,100400.22
2023-01-19T08:54:16.677Z,100401.88
2023-01-19T08:57:08.267Z,100414.56
2023-01-19T08:59:57.587Z,100402.69
2023-01-19T09:02:47.015Z,100418.34
2023-01-19T09:05:39.048Z,100419.16
2023-01-19T09:08:28.739Z,100424.28
2023-01-19T09:11:18.837Z,100416.47
2023-01-19T09:14:09.693Z,100411.88
2023-01-19T09:16:59.311Z,100422.13
2023-01-19T09:19:48.579Z,100419.41
2023-01-19T09:22:39.707Z,100424.28
2023-01-19T09:25:29.150Z,100419.16
2023-01-19T09:28:19.247Z,100423.19
2023-01-19T09:31:10.726Z,100423.75
2023-01-19T09:34:00.109Z,100427.53
2023-01-19T09:36:49.258Z,100435.63
2023-01-19T09:39:39.121Z,100440.47
2023-01-19T09:42:36.321Z,100439.94
2023-01-19T09:45:36.197Z,100438.34
2023-01-19T09:48:40.430Z,100442.41
2023-01-19T09:51:34.426Z,100435.91
2023-01-19T09:54:30.566Z,100446.47
2023-01-19T09:57:19.852Z,100454.03
2023-01-19T10:00:17.715Z,100455.66
2023-01-19T10:03:16.825Z,100455.94
2023-01-19T10:06:10.817Z,100464.03
2023-01-19T10:09:08.446Z,100466.75
2023-01-19T10:12:04.081Z,100480.53
2023-01-19T10:15:01.857Z,100486.47
2023-01-19T10:18:05.456Z,100488.91
2023-01-19T10:21:01.187Z,100492.69
2023-01-19T10:23:56.720Z,100491.88
2023-01-19T10:26:49.216Z,100502.16
2023-01-19T10:29:39.483Z,100500.25
2023-01-19T10:32:32.830Z,100493.78
2023-01-19T10:35:25.502Z,100503.50
2023-01-19T10:38:22.223Z,100504.56
2023-01-19T10:41:22.314Z,100512.44
2023-01-19T10:44:12.974Z,100511.09
2023-01-19T10:47:03.328Z,100506.75
2023-01-19T10:49:52.634Z,100528.94
2023-01-19T10:52:44.794Z,100531.38
2023-01-19T10:55:38.161Z,100526.50
2023-01-19T10:58:32.376Z,100543.53
2023-01-19T11:01:24.541Z,100540.00
2023-01-19T11:04:28.846Z,100542.97
2023-01-19T11:07:22.789Z,100546.72
2023-01-19T11:10:25.208Z,100549.66
2023-01-19T11:13:16.012Z,100555.00
2023-01-19T11:16:17.343Z,100552.25
2023-01-19T11:19:07.711Z,100564.13
2023-01-19T11:22:16.758Z,100572.78
2023-01-19T11:25:08.030Z,100577.63
2023-01-19T11:27:57.347Z,100572.78
2023-01-19T11:30:58.071Z,100565.75
2023-01-19T11:33:54.547Z,100584.72
2023-01-19T11:36:56.032Z,100575.78
2023-01-19T11:39:50.064Z,100569.59
2023-01-19T11:42:40.360Z,100567.41
2023-01-19T11:45:29.785Z,100582.56
2023-01-19T11:48:28.713Z,100584.19
2023-01-19T11:51:23.256Z,100574.22
2023-01-19T11:54:24.922Z,100568.84
2023-01-19T11:57:17.706Z,100578.50
2023-01-19T12:00:31.271Z,100576.41
2023-01-19T12:03:26.625Z,100589.66
2023-01-19T12:06:22.744Z,100588.81
2023-01-19T12:09:20.679Z,100607.34
2023-01-19T12:12:18.601Z,100597.19
2023-01-19T12:15:22.540Z,100584.63
2023-01-19T12:18:19.562Z,100596.28
2023-01-19T12:21:08.881Z,100592.16
2023-01-19T12:24:16.130Z,100595.59
2023-01-19T12:27:16.815Z,100593.84
2023-01-19T12:30:17.406Z,100595.66
2023-01-19T12:33:37.576Z,100593.19
2023-01-19T12:36:40.281Z,100596.09
2023-01-19T12:39:31.150Z,100606.69
2023-01-19T12:42:21.406Z,100610.22
2023-01-19T12:45:17.860Z,100609.00
2023-01-19T12:48:24.467Z,100618.50
2023-01-19T12:51:25.268Z,100605.63
2023-01-19T12:54:33.170Z,100614.84
2023-01-19T12:57:28.336Z,100617.72
2023-01-19T13:00:33.185Z,100607.00
2023-01-19T13:03:58.755Z,100601.56
2023-01-19T13:07:13.923Z,100602.22
2023-01-19T13:11:02.146Z,100619.63
2023-01-19T13:14:37.239Z,100621.06
2023-01-19T13:17:34.659Z,100622.28
2023-01-19T13:20:31.451Z,100617.03
2023-01-19T13:23:26.854Z,100617.75
2023-01-19T13:26:20.178Z,100605.25
2023-01-19T13:29:17.074Z,100609.38
2023-01-19T13:32:15.976Z,100602.31
2023-01-19T13:35:08.205Z,100614.25
2023-01-19T13:38:00.180Z,100614.09
2023-01-19T13:40:50.014Z,100616.53
2023-01-19T13:43:41.170Z,100613.47
2023-01-19T13:46:33.381Z,100621.44
2023-01-19T13:49:29.812Z,100616.47
2023-01-19T13:52:23.661Z,100618.88
2023-01-19T13:55:17.284Z,100626.66
2023-01-19T13:58:20.807Z,100627.44
2023-01-19T14:01:23.847Z,100606.50
2023-01-19T14:04:27.780Z,100618.53
2023-01-19T14:07:26.492Z,100622.97
2023-01-19T14:10:17.834Z,100622.66
2023-01-19T14:13:15.371Z,100639.16
2023-01-19T14:16:09.261Z,100636.22
2023-01-19T14:19:05.035Z,100638.47
2023-01-19T14:22:02.953Z,100640.19
2023-01-19T14:24:52.277Z,100633.94
2023-01-19T14:27:41.587Z,100622.81
2023-01-19T14:30:32.700Z,100634.75
2023-01-19T14:33:41.993Z,100642.94
2023-01-19T14:36:39.295Z,100642.72
2023-01-19T14:39:34.010Z,100655.56
2023-01-19T14:42:28.331Z,100648.56
2023-01-19T14:45:20.503Z,100667.50
2023-01-19T14:48:19.422Z,100671.81
2023-01-19T14:51:08.955Z,100672.72
2023-01-19T14:54:02.115Z,100688.44
2023-01-19T14:56:54.762Z,100689.56
2023-01-19T14:59:48.465Z,100690.91
2023-01-19T15:02:37.831Z,100701.00
2023-01-19T15:05:27.208Z,100697.44
2023-01-19T15:08:20.485Z,100708.59
2023-01-19T15:11:23.240Z,100710.44
2023-01-19T15:14:15.489Z,100710.44
2023-01-19T15:17:05.192Z,100712.34
2023-01-19T15:19:55.300Z,100716.72
2023-01-19T15:22:44.991Z,100725.13
2023-01-19T15:25:34.394Z,100727.59
2023-01-19T15:28:25.021Z,100730.34
2023-01-19T15:31:19.156Z,100740.69
2023-01-19T15:34:13.548Z,100737.47
2023-01-19T15:37:02.835Z,100758.59
2023-01-19T15:39:52.118Z,100763.81
2023-01-19T15:42:41.522Z,100760.88
2023-01-19T15:45:37.306Z,100770.91
2023-01-19T15:48:26.685Z,100773.34
2023-01-19T15:51:18.006Z,100770.13
2023-01-19T15:54:07.413Z,100781.56
2023-01-19T15:56:56.745Z,100781.03
2023-01-19T15:59:46.003Z,100771.00
2023-01-19T16:02:37.947Z,100770.50
2023-01-19T16:05:41.370Z,100793.50
2023-01-19T16:08:31.451Z,100810.06
2023-01-19T16:11:20.654Z,100809.00
2023-01-19T16:14:09.955Z,100808.50
2023-01-19T16:17:00.061Z,100808.75
2023-01-19T16:19:50.848Z,100797.69
2023-01-19T16:22:40.499Z,100808.53
2023-01-19T16:25:31.123Z,100813.97
2023-01-19T16:28:20.395Z,100813.72
2023-01-19T16:31:09.655Z,100815.06
2023-01-19T16:33:58.808Z,100823.47
2023-01-19T16:36:50.069Z,100825.66
2023-01-19T16:39:39.698Z,100835.94
2023-01-19T16:42:28.967Z,100844.34
2023-01-19T16:45:18.314Z,100854.13
2023-01-19T16:48:08.022Z,100870.38
2023-01-19T16:51:04.703Z,100870.91
2023-01-19T16:53:55.647Z,100879.34
2023-01-19T16:56:44.993Z,100877.41
2023-01-19T16:59:34.251Z,100871.75
2023-01-19T17:02:23.549Z,100861.97
2023-01-19T17:05:13.132Z,100873.91
2023-01-19T17:08:02.516Z,100872.53
2023-01-19T17:10:53.180Z,100894.47
2023-01-19T17:13:42.463Z,100903.97
2023-01-19T17:16:33.962Z,100908.78
2023-01-19T17:19:23.346Z,100912.88
2023-01-19T17:22:13.738Z,100923.69
2023-01-19T17:25:02.969Z,100908.78
2023-01-19T17:27:53.655Z,100922.88
2023-01-19T17:30:43.242Z,100914.72
2023-01-19T17:33:32.579Z,100909.81
2023-01-19T17:36:25.378Z,100917.94
2023-01-19T17:39:18.628Z,100920.66
2023-01-19T17:42:08.022Z,100939.03
2023-01-19T17:44:58.604Z,100949.59
2023-01-19T17:47:50.599Z,100960.16
2023-01-19T17:50:40.168Z,100971.50
2023-01-19T17:53:29.845Z,100976.31
2023-01-19T17:56:22.033Z,100962.50
2023-01-19T17:59:11.311Z,100977.94
2023-01-19T18:02:01.912Z,100964.91
2023-01-19T18:04:53.009Z,100967.59
2023-01-19T18:07:42.310Z,100959.47
2023-01-19T18:10:31.487Z,100955.09
2023-01-19T18:13:20.781Z,100973.50
2023-01-19T18:16:13.875Z,100984.88
2023-01-19T18:19:04.459Z,100997.59
2023-01-19T18:21:53.647Z,101000.88
2023-01-19T18:24:44.399Z,101000.03
2023-01-19T18:27:33.689Z,101001.38
2023-01-19T18:30:24.015Z,101003.81
2023-01-19T18:33:13.269Z,101006.19
2023-01-19T18:36:04.541Z,100988.50
2023-01-19T18:38:53.769Z,100997.47
2023-01-19T18:41:43.010Z,100993.97
2023-01-19T18:44:32.279Z,100987.41
2023-01-19T18:47:21.590Z,100991.75
2023-01-19T18:50:14.232Z,100993.03
2023-01-19T18:53:05.081Z,101014.41
2023-01-19T18:55:57.977Z,101019.25
2023-01-19T18:58:47.570Z,101023.03
2023-01-19T19:01:37.097Z,101023.03
2023-01-19T19:04:26.410Z,101025.97
2023-01-19T19:07:15.734Z,101017.53
2023-01-19T19:10:07.699Z,101004.25
2023-01-19T19:12:56.952Z,101016.44
2023-01-19T19:15:46.247Z,101022.13
2023-01-19T19:18:36.453Z,101025.16
2023-01-19T19:21:26.477Z,101037.03
2023-01-19T19:24:15.720Z,101048.91
2023-01-19T19:27:06.464Z,101052.69
2023-01-19T19:29:55.726Z,101057.00
2023-01-19T19:32:44.937Z,101051.31
2023-01-19T19:35:34.259Z,101059.16
2023-01-19T19:38:23.556Z,101051.78
2023-01-19T19:41:15.915Z,101042.56
2023-01-19T19:44:06.905Z,101048.81
2023-01-19T19:46:56.175Z,101046.91
2023-01-19T19:49:45.451Z,101039.81
2023-01-19T19:52:40.482Z,101041.88
2023-01-19T19:55:29.829Z,101056.31
2023-01-19T19:58:19.180Z,101065.00
2023-01-19T20:01:15.076Z,101059.47
2023-01-19T20:04:10.812Z,101071.63
2023-01-19T20:07:00.320Z,101071.91
2023-01-19T20:09:51.186Z,101061.34
2023-01-19T20:12:40.416Z,101067.56
2023-01-19T20:15:29.705Z,101046.94
2023-01-19T20:18:20.325Z,101062.97
2023-01-19T20:21:14.709Z,101070.25
2023-01-19T20:24:06.412Z,101076.72
2023-01-19T20:26:56.803Z,101082.13
2023-01-19T20:29:51.471Z,101096.22
2023-01-19T20:32:41.270Z,101092.09
2023-01-19T20:35:32.096Z,101086.59
2023-01-19T20:38:21.317Z,101089.56
2023-01-19T20:41:13.044Z,101087.59
2023-01-19T20:44:02.304Z,101099.25
2023-01-19T20:46:52.205Z,101099.19
2023-01-19T20:49:42.110Z,101114.31
2023-01-19T20:52:32.822Z,101099.63
2023-01-19T20:55:22.005Z,101096.38
2023-01-19T20:58:11.239Z,101116.38
2023-01-19T21:01:00.733Z,101112.88
2023-01-19T21:03:50.853Z,101107.09
2023-01-19T21:06:40.399Z,101113.88
2023-01-19T21:09:31.119Z,101114.19
2023-01-19T21:12:21.536Z,101116.66
2023-01-19T21:15:12.256Z,101132.53
2023-01-19T21:18:02.003Z,101133.84
2023-01-19T21:20:51.283Z,101141.69
2023-01-19T21:23:40.575Z,101143.84
2023-01-19T21:26:33.596Z,101136.16
2023-01-19T21:29:22.731Z,101145.22
2023-01-19T21:32:12.007Z,101157.25
2023-01-19T21:35:01.205Z,101158.16
2023-01-19T21:37:50.461Z,101160.06
2023-01-19T21:40:39.721Z,101165.16
2023-01-19T21:43:30.476Z,101170.78
2023-01-19T21:46:22.158Z,101166.44
2023-01-19T21:49:21.360Z,101175.19
2023-01-19T21:52:10.562Z,101176.25
2023-01-19T21:54:59.818Z,101165.16
2023-01-19T21:57:49.119Z,101170.28
2023-01-19T22:00:39.770Z,101171.75
2023-01-19T22:03:29.823Z,101171.94
2023-01-19T22:06:19.146Z,101158.59
2023-01-19T22:09:23.449Z,101180.53
2023-01-19T22:12:12.722Z,101187.75
2023-01-19T22:15:01.993Z,101183.06
2023-01-19T22:17:53.544Z,101204.19
2023-01-19T22:20:42.761Z,101192.88
2023-01-19T22:23:31.975Z,101198.53
2023-01-19T22:26:21.834Z,101188.03
2023-01-19T22:29:11.971Z,101191.25
2023-01-19T22:32:01.219Z,101192.31
2023-01-19T22:34:51.883Z,101189.88
2023-01-19T22:37:41.327Z,101201.41
2023-01-19T22:40:30.597Z,101201.00
2023-01-19T22:43:19.861Z,101206.50
2023-01-19T22:46:09.210Z,101206.50
2023-01-19T22:48:58.889Z,101214.81
2023-01-19T22:51:49.772Z,101208.22
2023-01-19T22:54:39.037Z,101219.09
2023-01-19T22:57:28.365Z,101220.66
2023-01-19T23:00:19.114Z,101219.00
2023-01-19T23:03:08.360Z,101223.28
2023-01-19T23:05:57.977Z,101227.53
2023-01-19T23:08:48.932Z,101240.44
2023-01-19T23:11:41.383Z,101230.56
2023-01-19T23:14:30.626Z,101234.22
2023-01-19T23:17:19.838Z,101244.94
2023-01-19T23:20:11.344Z,101248.47
2023-01-19T23:23:00.570Z,101245.19
2023-01-19T23:25:51.294Z,101251.41
2023-01-19T23:28:40.929Z,101259.50
2023-01-19T23:31:32.880Z,101250.84
2023-01-19T23:34:22.204Z,101262.06
2023-01-19T23:37:11.466Z,101254.50
2023-01-19T23:40:00.751Z,101261.22
2023-01-19T23:42:51.463Z,101262.63
2023-01-19T23:45:40.811Z,101262.06
2023-01-19T23:48:30.072Z,101241.94
2023-01-19T23:51:23.001Z,101265.81
2023-01-19T23:54:13.034Z,101273.91
2023-01-19T23:57:02.675Z,101271.22
2023-01-19T23:59:53.371Z,101260.47
